sensor_id;sensor_type;location;lat;lon;timestamp;temperature;humidity
28530;DHT22;15737;49.760;6.632;2023-11-19T00:02:15;9.70;99.90
28530;DHT22;15737;49.760;6.632;2023-11-19T00:04:41;9.70;99.90
28530;DHT22;15737;49.760;6.632;2023-11-19T00:07:07;9.80;99.90
28530;DHT22;15737;49.760;6.632;2023-11-19T00:09:36;9.80;99.90
28530;DHT22;15737;49.760;6.632;2023-11-19T00:12:03;9.80;99.90
28530;DHT22;15737;49.760;6.632;2023-11-19T00:14:30;9.90;99.90
28530;DHT22;15737;49.760;6.632;2023-11-19T00:16:55;9.90;99.90
28530;DHT22;15737;49.760;6.632;2023-11-19T00:19:21;9.90;99.90
28530;DHT22;15737;49.760;6.632;2023-11-19T00:21:47;9.90;99.90
28530;DHT22;15737;49.760;6.632;2023-11-19T00:24:12;9.90;99.90
28530;DHT22;15737;49.760;6.632;2023-11-19T00:26:41;9.90;99.90
28530;DHT22;15737;49.760;6.632;2023-11-19T00:29:07;9.90;99.90
28530;DHT22;15737;49.760;6.632;2023-11-19T00:31:33;9.90;99.90
28530;DHT22;15737;49.760;6.632;2023-11-19T00:33:58;9.90;99.90
28530;DHT22;15737;49.760;6.632;2023-11-19T00:36:24;9.90;99.90
28530;DHT22;15737;49.760;6.632;2023-11-19T00:38:50;9.90;99.90
28530;DHT22;15737;49.760;6.632;2023-11-19T00:41:18;9.90;99.90
28530;DHT22;15737;49.760;6.632;2023-11-19T00:43:44;9.90;99.90
28530;DHT22;15737;49.760;6.632;2023-11-19T00:46:09;9.90;99.90
28530;DHT22;15737;49.760;6.632;2023-11-19T00:48:36;10.00;99.90
28530;DHT22;15737;49.760;6.632;2023-11-19T00:51:02;10.00;99.90
28530;DHT22;15737;49.760;6.632;2023-11-19T00:53:29;10.00;99.90
28530;DHT22;15737;49.760;6.632;2023-11-19T00:55:55;10.00;99.90
28530;DHT22;15737;49.760;6.632;2023-11-19T00:58:20;10.00;99.90
28530;DHT22;15737;49.760;6.632;2023-11-19T01:00:46;10.00;99.90
28530;DHT22;15737;49.760;6.632;2023-11-19T01:03:11;10.00;99.90
28530;DHT22;15737;49.760;6.632;2023-11-19T01:05:37;10.00;99.90
28530;DHT22;15737;49.760;6.632;2023-11-19T01:08:02;10.10;99.90
28530;DHT22;15737;49.760;6.632;2023-11-19T01:10:30;10.10;99.90
28530;DHT22;15737;49.760;6.632;2023-11-19T01:12:55;10.10;99.90
28530;DHT22;15737;49.760;6.632;2023-11-19T01:15:21;10.10;99.90
28530;DHT22;15737;49.760;6.632;2023-11-19T01:17:46;10.10;99.90
28530;DHT22;15737;49.760;6.632;2023-11-19T01:20:12;10.20;99.90
28530;DHT22;15737;49.760;6.632;2023-11-19T01:22:39;10.20;99.90
28530;DHT22;15737;49.760;6.632;2023-11-19T01:25:06;10.20;99.90
28530;DHT22;15737;49.760;6.632;2023-11-19T01:27:31;10.20;99.90
28530;DHT22;15737;49.760;6.632;2023-11-19T01:29:59;10.20;99.90
28530;DHT22;15737;49.760;6.632;2023-11-19T01:32:27;10.20;99.90
28530;DHT22;15737;49.760;6.632;2023-11-19T01:34:52;10.20;99.90
28530;DHT22;15737;49.760;6.632;2023-11-19T01:37:18;10.20;99.90
28530;DHT22;15737;49.760;6.632;2023-11-19T01:39:44;10.20;99.90
28530;DHT22;15737;49.760;6.632;2023-11-19T01:42:10;10.20;99.90
28530;DHT22;15737;49.760;6.632;2023-11-19T01:44:37;10.20;99.90
28530;DHT22;15737;49.760;6.632;2023-11-19T01:47:03;10.20;99.90
28530;DHT22;15737;49.760;6.632;2023-11-19T01:49:30;10.20;99.90
28530;DHT22;15737;49.760;6.632;2023-11-19T01:51:57;10.20;99.90
28530;DHT22;15737;49.760;6.632;2023-11-19T01:54:23;10.20;99.90
28530;DHT22;15737;49.760;6.632;2023-11-19T01:56:49;10.30;99.90
28530;DHT22;15737;49.760;6.632;2023-11-19T01:59:15;10.30;99.90
28530;DHT22;15737;49.760;6.632;2023-11-19T02:01:41;10.30;99.90
28530;DHT22;15737;49.760;6.632;2023-11-19T02:04:08;10.30;99.90
28530;DHT22;15737;49.760;6.632;2023-11-19T02:06:34;10.40;99.90
28530;DHT22;15737;49.760;6.632;2023-11-19T02:09:02;10.40;99.90
28530;DHT22;15737;49.760;6.632;2023-11-19T02:11:33;10.40;99.90
28530;DHT22;15737;49.760;6.632;2023-11-19T02:14:15;10.40;99.90
28530;DHT22;15737;49.760;6.632;2023-11-19T02:16:40;10.40;99.90
28530;DHT22;15737;49.760;6.632;2023-11-19T02:19:06;10.50;99.90
28530;DHT22;15737;49.760;6.632;2023-11-19T02:21:31;10.50;99.90
28530;DHT22;15737;49.760;6.632;2023-11-19T02:23:57;10.50;99.90
28530;DHT22;15737;49.760;6.632;2023-11-19T02:26:30;10.50;99.90
28530;DHT22;15737;49.760;6.632;2023-11-19T02:28:58;10.50;99.90
28530;DHT22;15737;49.760;6.632;2023-11-19T02:31:33;10.50;99.90
28530;DHT22;15737;49.760;6.632;2023-11-19T02:34:00;10.50;99.90
28530;DHT22;15737;49.760;6.632;2023-11-19T02:36:27;10.50;99.90
28530;DHT22;15737;49.760;6.632;2023-11-19T02:38:53;10.60;99.90
28530;DHT22;15737;49.760;6.632;2023-11-19T02:41:18;10.60;99.90
28530;DHT22;15737;49.760;6.632;2023-11-19T02:43:44;10.60;99.90
28530;DHT22;15737;49.760;6.632;2023-11-19T02:46:10;10.60;99.90
28530;DHT22;15737;49.760;6.632;2023-11-19T02:48:36;10.70;99.90
28530;DHT22;15737;49.760;6.632;2023-11-19T02:51:02;10.70;99.90
28530;DHT22;15737;49.760;6.632;2023-11-19T02:53:29;10.80;99.90
28530;DHT22;15737;49.760;6.632;2023-11-19T02:55:58;10.80;99.90
28530;DHT22;15737;49.760;6.632;2023-11-19T02:58:34;10.80;99.90
28530;DHT22;15737;49.760;6.632;2023-11-19T03:01:00;10.80;99.90
28530;DHT22;15737;49.760;6.632;2023-11-19T03:03:34;10.90;99.90
28530;DHT22;15737;49.760;6.632;2023-11-19T03:06:07;10.90;99.90
28530;DHT22;15737;49.760;6.632;2023-11-19T03:08:35;11.00;99.90
28530;DHT22;15737;49.760;6.632;2023-11-19T03:11:01;11.00;99.90
28530;DHT22;15737;49.760;6.632;2023-11-19T03:13:27;11.00;99.90
28530;DHT22;15737;49.760;6.632;2023-11-19T03:15:52;11.10;99.90
28530;DHT22;15737;49.760;6.632;2023-11-19T03:18:19;11.10;99.90
28530;DHT22;15737;49.760;6.632;2023-11-19T03:20:46;11.10;99.90
28530;DHT22;15737;49.760;6.632;2023-11-19T03:23:12;11.10;99.90
28530;DHT22;15737;49.760;6.632;2023-11-19T03:25:38;11.30;99.90
28530;DHT22;15737;49.760;6.632;2023-11-19T03:28:18;11.30;99.90
28530;DHT22;15737;49.760;6.632;2023-11-19T03:30:44;11.40;99.90
28530;DHT22;15737;49.760;6.632;2023-11-19T03:33:09;11.50;99.90
28530;DHT22;15737;49.760;6.632;2023-11-19T03:35:35;11.50;99.90
28530;DHT22;15737;49.760;6.632;2023-11-19T03:38:00;11.50;99.90
28530;DHT22;15737;49.760;6.632;2023-11-19T03:40:26;11.50;99.90
28530;DHT22;15737;49.760;6.632;2023-11-19T03:42:52;11.40;99.90
28530;DHT22;15737;49.760;6.632;2023-11-19T03:45:17;11.50;99.90
28530;DHT22;15737;49.760;6.632;2023-11-19T03:47:43;11.50;99.90
28530;DHT22;15737;49.760;6.632;2023-11-19T03:50:08;11.50;99.90
28530;DHT22;15737;49.760;6.632;2023-11-19T03:52:35;11.60;99.90
28530;DHT22;15737;49.760;6.632;2023-11-19T03:55:00;11.60;99.90
28530;DHT22;15737;49.760;6.632;2023-11-19T03:57:27;11.60;99.90
28530;DHT22;15737;49.760;6.632;2023-11-19T03:59:56;11.60;99.90
28530;DHT22;15737;49.760;6.632;2023-11-19T04:02:23;11.60;99.90
28530;DHT22;15737;49.760;6.632;2023-11-19T04:04:53;11.60;99.90
28530;DHT22;15737;49.760;6.632;2023-11-19T04:07:18;11.70;99.90
28530;DHT22;15737;49.760;6.632;2023-11-19T04:09:44;11.70;99.90
28530;DHT22;15737;49.760;6.632;2023-11-19T04:12:12;11.70;99.90
28530;DHT22;15737;49.760;6.632;2023-11-19T04:14:37;11.70;99.90
28530;DHT22;15737;49.760;6.632;2023-11-19T04:17:03;11.80;99.90
28530;DHT22;15737;49.760;6.632;2023-11-19T04:22:04;11.90;99.90
28530;DHT22;15737;49.760;6.632;2023-11-19T04:24:29;11.90;99.90
28530;DHT22;15737;49.760;6.632;2023-11-19T04:26:55;11.90;99.90
28530;DHT22;15737;49.760;6.632;2023-11-19T04:29:20;11.90;99.90
28530;DHT22;15737;49.760;6.632;2023-11-19T04:31:46;12.00;99.90
28530;DHT22;15737;49.760;6.632;2023-11-19T04:34:12;12.00;99.90
28530;DHT22;15737;49.760;6.632;2023-11-19T04:36:38;12.00;99.90
28530;DHT22;15737;49.760;6.632;2023-11-19T04:39:04;12.00;99.90
28530;DHT22;15737;49.760;6.632;2023-11-19T04:41:35;12.10;99.90
28530;DHT22;15737;49.760;6.632;2023-11-19T04:44:01;12.00;99.90
28530;DHT22;15737;49.760;6.632;2023-11-19T04:46:40;12.00;99.90
28530;DHT22;15737;49.760;6.632;2023-11-19T04:49:05;12.00;99.90
28530;DHT22;15737;49.760;6.632;2023-11-19T04:51:31;12.10;99.90
28530;DHT22;15737;49.760;6.632;2023-11-19T04:53:56;12.10;99.90
28530;DHT22;15737;49.760;6.632;2023-11-19T04:56:22;12.10;99.90
28530;DHT22;15737;49.760;6.632;2023-11-19T04:58:48;12.20;99.90
28530;DHT22;15737;49.760;6.632;2023-11-19T05:01:14;12.20;99.90
28530;DHT22;15737;49.760;6.632;2023-11-19T05:03:43;12.20;99.90
28530;DHT22;15737;49.760;6.632;2023-11-19T05:06:09;12.10;99.90
28530;DHT22;15737;49.760;6.632;2023-11-19T05:08:35;12.20;99.90
28530;DHT22;15737;49.760;6.632;2023-11-19T05:11:01;12.10;99.90
28530;DHT22;15737;49.760;6.632;2023-11-19T05:13:26;12.20;99.90
28530;DHT22;15737;49.760;6.632;2023-11-19T05:15:52;12.20;99.90
28530;DHT22;15737;49.760;6.632;2023-11-19T05:18:17;12.20;99.90
28530;DHT22;15737;49.760;6.632;2023-11-19T05:20:44;12.20;99.90
28530;DHT22;15737;49.760;6.632;2023-11-19T05:23:10;12.20;99.90
28530;DHT22;15737;49.760;6.632;2023-11-19T05:25:36;12.20;99.90
28530;DHT22;15737;49.760;6.632;2023-11-19T05:28:02;12.20;99.90
28530;DHT22;15737;49.760;6.632;2023-11-19T05:30:27;12.20;99.90
28530;DHT22;15737;49.760;6.632;2023-11-19T05:32:53;12.30;99.90
28530;DHT22;15737;49.760;6.632;2023-11-19T05:35:18;12.20;99.90
28530;DHT22;15737;49.760;6.632;2023-11-19T05:37:44;12.20;99.90
28530;DHT22;15737;49.760;6.632;2023-11-19T05:40:10;12.20;99.90
28530;DHT22;15737;49.760;6.632;2023-11-19T05:42:43;12.20;99.90
28530;DHT22;15737;49.760;6.632;2023-11-19T05:45:11;12.20;99.90
28530;DHT22;15737;49.760;6.632;2023-11-19T05:47:37;12.20;99.90
28530;DHT22;15737;49.760;6.632;2023-11-19T05:50:03;12.30;99.90
28530;DHT22;15737;49.760;6.632;2023-11-19T05:52:29;12.20;99.90
28530;DHT22;15737;49.760;6.632;2023-11-19T05:55:01;12.20;99.90
28530;DHT22;15737;49.760;6.632;2023-11-19T05:57:34;12.20;99.90
28530;DHT22;15737;49.760;6.632;2023-11-19T06:00:00;12.10;99.90
28530;DHT22;15737;49.760;6.632;2023-11-19T06:02:25;12.00;99.90
28530;DHT22;15737;49.760;6.632;2023-11-19T06:04:52;12.00;99.90
28530;DHT22;15737;49.760;6.632;2023-11-19T06:07:18;11.90;99.90
28530;DHT22;15737;49.760;6.632;2023-11-19T06:09:44;11.90;99.90
28530;DHT22;15737;49.760;6.632;2023-11-19T06:12:09;11.90;99.90
28530;DHT22;15737;49.760;6.632;2023-11-19T06:14:35;11.90;99.90
28530;DHT22;15737;49.760;6.632;2023-11-19T06:17:00;11.90;99.90
28530;DHT22;15737;49.760;6.632;2023-11-19T06:19:25;11.90;99.90
28530;DHT22;15737;49.760;6.632;2023-11-19T06:21:51;11.90;99.90
28530;DHT22;15737;49.760;6.632;2023-11-19T06:24:16;11.90;99.90
28530;DHT22;15737;49.760;6.632;2023-11-19T06:26:42;12.00;99.90
28530;DHT22;15737;49.760;6.632;2023-11-19T06:29:07;12.00;99.90
28530;DHT22;15737;49.760;6.632;2023-11-19T06:31:33;12.10;99.90
28530;DHT22;15737;49.760;6.632;2023-11-19T06:33:58;12.10;99.90
28530;DHT22;15737;49.760;6.632;2023-11-19T06:36:24;12.20;99.90
28530;DHT22;15737;49.760;6.632;2023-11-19T06:38:49;12.30;99.90
28530;DHT22;15737;49.760;6.632;2023-11-19T06:41:15;12.30;99.90
28530;DHT22;15737;49.760;6.632;2023-11-19T06:43:40;12.30;99.90
28530;DHT22;15737;49.760;6.632;2023-11-19T06:46:14;12.30;99.90
28530;DHT22;15737;49.760;6.632;2023-11-19T06:48:40;12.40;99.90
28530;DHT22;15737;49.760;6.632;2023-11-19T06:51:06;12.40;99.90
28530;DHT22;15737;49.760;6.632;2023-11-19T06:53:31;12.40;99.90
28530;DHT22;15737;49.760;6.632;2023-11-19T06:55:57;12.40;99.90
28530;DHT22;15737;49.760;6.632;2023-11-19T06:58:22;12.40;99.90
28530;DHT22;15737;49.760;6.632;2023-11-19T07:00:48;12.50;99.90
28530;DHT22;15737;49.760;6.632;2023-11-19T07:03:15;12.40;99.90
28530;DHT22;15737;49.760;6.632;2023-11-19T07:05:41;12.50;99.90
28530;DHT22;15737;49.760;6.632;2023-11-19T07:08:06;12.50;99.90
28530;DHT22;15737;49.760;6.632;2023-11-19T07:10:35;12.50;99.90
28530;DHT22;15737;49.760;6.632;2023-11-19T07:13:03;12.50;99.90
28530;DHT22;15737;49.760;6.632;2023-11-19T07:15:31;12.50;99.90
28530;DHT22;15737;49.760;6.632;2023-11-19T07:17:58;12.30;99.90
28530;DHT22;15737;49.760;6.632;2023-11-19T07:20:24;12.20;99.90
28530;DHT22;15737;49.760;6.632;2023-11-19T07:22:52;12.10;99.90
28530;DHT22;15737;49.760;6.632;2023-11-19T07:25:17;12.10;99.90
28530;DHT22;15737;49.760;6.632;2023-11-19T07:27:43;12.10;99.90
28530;DHT22;15737;49.760;6.632;2023-11-19T07:30:08;12.20;99.90
28530;DHT22;15737;49.760;6.632;2023-11-19T07:32:34;12.30;99.90
28530;DHT22;15737;49.760;6.632;2023-11-19T07:34:59;12.40;99.90
28530;DHT22;15737;49.760;6.632;2023-11-19T07:37:25;12.50;99.90
28530;DHT22;15737;49.760;6.632;2023-11-19T07:39:51;12.70;99.90
28530;DHT22;15737;49.760;6.632;2023-11-19T07:42:17;12.80;99.90
28530;DHT22;15737;49.760;6.632;2023-11-19T07:44:44;12.80;99.90
28530;DHT22;15737;49.760;6.632;2023-11-19T07:47:09;12.80;99.90
28530;DHT22;15737;49.760;6.632;2023-11-19T07:49:35;12.70;99.90
28530;DHT22;15737;49.760;6.632;2023-11-19T07:52:01;12.70;99.90
28530;DHT22;15737;49.760;6.632;2023-11-19T07:54:28;12.70;99.90
28530;DHT22;15737;49.760;6.632;2023-11-19T07:56:54;12.70;99.90
28530;DHT22;15737;49.760;6.632;2023-11-19T07:59:19;12.70;99.90
28530;DHT22;15737;49.760;6.632;2023-11-19T08:01:45;12.70;99.90
28530;DHT22;15737;49.760;6.632;2023-11-19T08:04:10;12.70;99.90
28530;DHT22;15737;49.760;6.632;2023-11-19T08:06:36;12.70;99.90
28530;DHT22;15737;49.760;6.632;2023-11-19T08:09:02;12.70;99.90
28530;DHT22;15737;49.760;6.632;2023-11-19T08:11:27;12.80;99.90
28530;DHT22;15737;49.760;6.632;2023-11-19T08:13:53;12.90;99.90
28530;DHT22;15737;49.760;6.632;2023-11-19T08:16:18;12.90;99.90
28530;DHT22;15737;49.760;6.632;2023-11-19T08:18:45;13.00;99.90
28530;DHT22;15737;49.760;6.632;2023-11-19T08:21:29;13.00;99.90
28530;DHT22;15737;49.760;6.632;2023-11-19T08:23:54;13.10;99.90
28530;DHT22;15737;49.760;6.632;2023-11-19T08:26:20;13.10;99.90
28530;DHT22;15737;49.760;6.632;2023-11-19T08:28:45;13.10;99.90
28530;DHT22;15737;49.760;6.632;2023-11-19T08:31:11;13.00;99.90
28530;DHT22;15737;49.760;6.632;2023-11-19T08:33:40;12.90;99.90
28530;DHT22;15737;49.760;6.632;2023-11-19T08:36:05;12.90;99.90
28530;DHT22;15737;49.760;6.632;2023-11-19T08:38:31;12.80;99.90
28530;DHT22;15737;49.760;6.632;2023-11-19T08:40:57;13.00;99.90
28530;DHT22;15737;49.760;6.632;2023-11-19T08:43:25;14.30;99.90
28530;DHT22;15737;49.760;6.632;2023-11-19T08:45:51;16.30;99.90
28530;DHT22;15737;49.760;6.632;2023-11-19T08:48:16;17.20;99.90
28530;DHT22;15737;49.760;6.632;2023-11-19T08:50:42;16.90;99.90
28530;DHT22;15737;49.760;6.632;2023-11-19T08:53:07;16.00;99.90
28530;DHT22;15737;49.760;6.632;2023-11-19T08:55:33;15.10;99.90
28530;DHT22;15737;49.760;6.632;2023-11-19T08:57:58;14.40;99.90
28530;DHT22;15737;49.760;6.632;2023-11-19T09:00:24;13.90;99.90
28530;DHT22;15737;49.760;6.632;2023-11-19T09:02:49;13.60;99.90
28530;DHT22;15737;49.760;6.632;2023-11-19T09:05:15;13.40;99.90
28530;DHT22;15737;49.760;6.632;2023-11-19T09:07:40;13.40;99.90
28530;DHT22;15737;49.760;6.632;2023-11-19T09:10:06;13.30;99.90
28530;DHT22;15737;49.760;6.632;2023-11-19T09:12:34;13.20;99.90
28530;DHT22;15737;49.760;6.632;2023-11-19T09:14:59;13.20;99.90
28530;DHT22;15737;49.760;6.632;2023-11-19T09:17:25;13.10;99.90
28530;DHT22;15737;49.760;6.632;2023-11-19T09:19:50;13.10;99.90
28530;DHT22;15737;49.760;6.632;2023-11-19T09:22:16;13.10;99.90
28530;DHT22;15737;49.760;6.632;2023-11-19T09:24:41;13.10;99.90
28530;DHT22;15737;49.760;6.632;2023-11-19T09:27:09;13.00;99.90
28530;DHT22;15737;49.760;6.632;2023-11-19T09:29:34;13.00;99.90
28530;DHT22;15737;49.760;6.632;2023-11-19T09:32:00;12.90;99.90
28530;DHT22;15737;49.760;6.632;2023-11-19T09:34:26;13.00;99.90
28530;DHT22;15737;49.760;6.632;2023-11-19T09:36:51;13.10;99.90
28530;DHT22;15737;49.760;6.632;2023-11-19T09:39:17;13.50;99.90
28530;DHT22;15737;49.760;6.632;2023-11-19T09:41:44;13.90;99.90
28530;DHT22;15737;49.760;6.632;2023-11-19T09:44:10;15.20;99.90
28530;DHT22;15737;49.760;6.632;2023-11-19T09:46:41;17.80;99.90
28530;DHT22;15737;49.760;6.632;2023-11-19T09:49:08;19.20;99.90
28530;DHT22;15737;49.760;6.632;2023-11-19T09:51:36;19.30;99.90
28530;DHT22;15737;49.760;6.632;2023-11-19T09:54:02;19.00;99.90
28530;DHT22;15737;49.760;6.632;2023-11-19T09:56:29;18.70;99.90
28530;DHT22;15737;49.760;6.632;2023-11-19T09:58:55;19.10;99.90
28530;DHT22;15737;49.760;6.632;2023-11-19T10:01:21;19.70;99.90
28530;DHT22;15737;49.760;6.632;2023-11-19T10:06:16;19.70;99.90
28530;DHT22;15737;49.760;6.632;2023-11-19T10:08:42;19.90;99.90
28530;DHT22;15737;49.760;6.632;2023-11-19T10:11:09;19.70;99.90
28530;DHT22;15737;49.760;6.632;2023-11-19T10:13:37;19.10;99.90
28530;DHT22;15737;49.760;6.632;2023-11-19T10:16:17;18.70;99.90
28530;DHT22;15737;49.760;6.632;2023-11-19T10:18:47;18.90;99.90
28530;DHT22;15737;49.760;6.632;2023-11-19T10:21:19;18.90;99.90
28530;DHT22;15737;49.760;6.632;2023-11-19T10:23:55;19.00;99.90
28530;DHT22;15737;49.760;6.632;2023-11-19T10:26:23;19.20;99.90
28530;DHT22;15737;49.760;6.632;2023-11-19T10:28:49;19.10;99.90
28530;DHT22;15737;49.760;6.632;2023-11-19T10:31:16;18.60;99.90
28530;DHT22;15737;49.760;6.632;2023-11-19T10:33:42;18.40;99.90
28530;DHT22;15737;49.760;6.632;2023-11-19T10:36:37;18.30;99.90
28530;DHT22;15737;49.760;6.632;2023-11-19T10:39:03;18.10;99.90
28530;DHT22;15737;49.760;6.632;2023-11-19T10:41:29;18.30;99.90
28530;DHT22;15737;49.760;6.632;2023-11-19T10:43:56;18.30;99.90
28530;DHT22;15737;49.760;6.632;2023-11-19T10:46:21;17.40;99.90
28530;DHT22;15737;49.760;6.632;2023-11-19T10:48:49;16.50;99.90
28530;DHT22;15737;49.760;6.632;2023-11-19T10:51:19;16.00;99.90
28530;DHT22;15737;49.760;6.632;2023-11-19T10:53:49;15.40;99.90
28530;DHT22;15737;49.760;6.632;2023-11-19T10:56:16;14.80;99.90
28530;DHT22;15737;49.760;6.632;2023-11-19T10:58:45;14.60;99.90
28530;DHT22;15737;49.760;6.632;2023-11-19T11:01:19;14.40;99.90
28530;DHT22;15737;49.760;6.632;2023-11-19T11:03:51;14.40;99.90
28530;DHT22;15737;49.760;6.632;2023-11-19T11:06:18;14.40;99.90
28530;DHT22;15737;49.760;6.632;2023-11-19T11:08:46;14.60;99.90
28530;DHT22;15737;49.760;6.632;2023-11-19T11:11:13;14.70;99.90
28530;DHT22;15737;49.760;6.632;2023-11-19T11:13:42;14.90;99.90
28530;DHT22;15737;49.760;6.632;2023-11-19T11:16:08;15.00;99.90
28530;DHT22;15737;49.760;6.632;2023-11-19T11:18:34;15.00;99.90
28530;DHT22;15737;49.760;6.632;2023-11-19T11:21:09;15.40;99.90
28530;DHT22;15737;49.760;6.632;2023-11-19T11:27:06;16.70;99.90
28530;DHT22;15737;49.760;6.632;2023-11-19T11:29:52;16.60;99.90
28530;DHT22;15737;49.760;6.632;2023-11-19T11:32:54;16.80;99.90
28530;DHT22;15737;49.760;6.632;2023-11-19T11:38:08;18.00;99.90
28530;DHT22;15737;49.760;6.632;2023-11-19T11:40:34;18.30;99.90
28530;DHT22;15737;49.760;6.632;2023-11-19T11:43:01;18.70;99.90
28530;DHT22;15737;49.760;6.632;2023-11-19T11:45:39;19.00;99.90
28530;DHT22;15737;49.760;6.632;2023-11-19T11:48:19;18.90;99.90
28530;DHT22;15737;49.760;6.632;2023-11-19T11:50:51;18.90;99.90
28530;DHT22;15737;49.760;6.632;2023-11-19T11:53:18;18.70;99.90
28530;DHT22;15737;49.760;6.632;2023-11-19T11:58:26;18.10;99.90
28530;DHT22;15737;49.760;6.632;2023-11-19T12:00:52;17.90;99.90
28530;DHT22;15737;49.760;6.632;2023-11-19T12:03:21;18.00;99.90
28530;DHT22;15737;49.760;6.632;2023-11-19T12:05:49;18.10;99.90
28530;DHT22;15737;49.760;6.632;2023-11-19T12:08:25;18.20;99.90
28530;DHT22;15737;49.760;6.632;2023-11-19T12:10:52;18.10;99.90
28530;DHT22;15737;49.760;6.632;2023-11-19T12:13:19;18.00;99.90
28530;DHT22;15737;49.760;6.632;2023-11-19T12:18:31;18.20;99.90
28530;DHT22;15737;49.760;6.632;2023-11-19T12:20:58;18.80;99.90
28530;DHT22;15737;49.760;6.632;2023-11-19T12:23:29;18.80;99.90
28530;DHT22;15737;49.760;6.632;2023-11-19T12:25:55;19.00;99.90
28530;DHT22;15737;49.760;6.632;2023-11-19T12:28:21;19.20;99.90
28530;DHT22;15737;49.760;6.632;2023-11-19T12:30:47;19.20;99.90
28530;DHT22;15737;49.760;6.632;2023-11-19T12:33:13;19.10;99.90
28530;DHT22;15737;49.760;6.632;2023-11-19T12:35:57;19.00;99.90
28530;DHT22;15737;49.760;6.632;2023-11-19T12:38:24;19.20;99.90
28530;DHT22;15737;49.760;6.632;2023-11-19T12:41:06;19.00;99.90
28530;DHT22;15737;49.760;6.632;2023-11-19T12:43:32;19.00;99.90
28530;DHT22;15737;49.760;6.632;2023-11-19T12:46:01;19.00;99.90
28530;DHT22;15737;49.760;6.632;2023-11-19T12:48:27;19.00;99.90
28530;DHT22;15737;49.760;6.632;2023-11-19T12:50:57;18.90;99.90
28530;DHT22;15737;49.760;6.632;2023-11-19T12:53:24;18.80;99.90
28530;DHT22;15737;49.760;6.632;2023-11-19T12:55:50;18.80;99.90
28530;DHT22;15737;49.760;6.632;2023-11-19T12:58:36;18.10;99.90
28530;DHT22;15737;49.760;6.632;2023-11-19T13:01:08;17.80;99.90
28530;DHT22;15737;49.760;6.632;2023-11-19T13:03:38;17.20;99.90
28530;DHT22;15737;49.760;6.632;2023-11-19T13:06:05;16.90;99.90
28530;DHT22;15737;49.760;6.632;2023-11-19T13:08:41;16.90;99.90
28530;DHT22;15737;49.760;6.632;2023-11-19T13:11:10;17.00;99.90
28530;DHT22;15737;49.760;6.632;2023-11-19T13:13:55;16.50;99.90
28530;DHT22;15737;49.760;6.632;2023-11-19T13:16:21;16.10;99.90
28530;DHT22;15737;49.760;6.632;2023-11-19T13:21:23;15.70;99.90
28530;DHT22;15737;49.760;6.632;2023-11-19T13:23:48;15.40;99.90
28530;DHT22;15737;49.760;6.632;2023-11-19T13:26:14;15.20;99.90
28530;DHT22;15737;49.760;6.632;2023-11-19T13:28:40;15.10;99.90
28530;DHT22;15737;49.760;6.632;2023-11-19T13:31:05;15.00;99.90
28530;DHT22;15737;49.760;6.632;2023-11-19T13:33:31;15.20;99.90
28530;DHT22;15737;49.760;6.632;2023-11-19T13:35:57;15.60;99.90
28530;DHT22;15737;49.760;6.632;2023-11-19T13:38:22;15.60;99.90
28530;DHT22;15737;49.760;6.632;2023-11-19T13:40:51;15.60;99.90
28530;DHT22;15737;49.760;6.632;2023-11-19T13:43:17;15.40;99.90
28530;DHT22;15737;49.760;6.632;2023-11-19T13:45:42;15.20;99.90
28530;DHT22;15737;49.760;6.632;2023-11-19T13:48:08;15.10;99.90
28530;DHT22;15737;49.760;6.632;2023-11-19T13:50:34;14.90;99.90
28530;DHT22;15737;49.760;6.632;2023-11-19T13:53:00;14.80;99.90
28530;DHT22;15737;49.760;6.632;2023-11-19T13:55:25;14.60;99.90
28530;DHT22;15737;49.760;6.632;2023-11-19T13:57:51;14.50;99.90
28530;DHT22;15737;49.760;6.632;2023-11-19T14:00:17;14.40;99.90
28530;DHT22;15737;49.760;6.632;2023-11-19T14:02:44;14.30;99.90
28530;DHT22;15737;49.760;6.632;2023-11-19T14:05:10;14.20;99.90
28530;DHT22;15737;49.760;6.632;2023-11-19T14:07:36;14.20;99.90
28530;DHT22;15737;49.760;6.632;2023-11-19T14:10:02;14.10;99.90
28530;DHT22;15737;49.760;6.632;2023-11-19T14:12:28;14.00;99.90
28530;DHT22;15737;49.760;6.632;2023-11-19T14:14:53;13.90;99.90
28530;DHT22;15737;49.760;6.632;2023-11-19T14:17:29;13.80;99.90
28530;DHT22;15737;49.760;6.632;2023-11-19T14:19:55;13.80;99.90
28530;DHT22;15737;49.760;6.632;2023-11-19T14:22:20;13.80;99.90
28530;DHT22;15737;49.760;6.632;2023-11-19T14:24:46;13.90;99.90
28530;DHT22;15737;49.760;6.632;2023-11-19T14:27:11;14.00;99.90
28530;DHT22;15737;49.760;6.632;2023-11-19T14:29:37;14.20;99.90
28530;DHT22;15737;49.760;6.632;2023-11-19T14:32:03;14.50;99.90
28530;DHT22;15737;49.760;6.632;2023-11-19T14:34:32;14.80;99.90
28530;DHT22;15737;49.760;6.632;2023-11-19T14:36:58;15.00;99.90
28530;DHT22;15737;49.760;6.632;2023-11-19T14:39:24;15.30;99.90
28530;DHT22;15737;49.760;6.632;2023-11-19T14:41:50;15.40;99.90
28530;DHT22;15737;49.760;6.632;2023-11-19T14:44:28;15.40;99.90
28530;DHT22;15737;49.760;6.632;2023-11-19T14:46:54;15.20;99.90
28530;DHT22;15737;49.760;6.632;2023-11-19T14:49:20;14.80;99.90
28530;DHT22;15737;49.760;6.632;2023-11-19T14:51:45;14.50;99.90
28530;DHT22;15737;49.760;6.632;2023-11-19T14:54:11;14.20;99.90
28530;DHT22;15737;49.760;6.632;2023-11-19T14:56:36;14.00;99.90
28530;DHT22;15737;49.760;6.632;2023-11-19T14:59:04;13.90;99.90
28530;DHT22;15737;49.760;6.632;2023-11-19T15:01:29;13.70;99.90
28530;DHT22;15737;49.760;6.632;2023-11-19T15:03:56;13.60;99.90
28530;DHT22;15737;49.760;6.632;2023-11-19T15:06:25;13.50;99.90
28530;DHT22;15737;49.760;6.632;2023-11-19T15:08:56;13.50;99.90
28530;DHT22;15737;49.760;6.632;2023-11-19T15:13:52;13.40;99.90
28530;DHT22;15737;49.760;6.632;2023-11-19T15:16:18;13.40;99.90
28530;DHT22;15737;49.760;6.632;2023-11-19T15:18:51;13.40;99.90
28530;DHT22;15737;49.760;6.632;2023-11-19T15:21:17;13.40;99.90
28530;DHT22;15737;49.760;6.632;2023-11-19T15:23:44;13.30;99.90
28530;DHT22;15737;49.760;6.632;2023-11-19T15:26:20;13.30;99.90
28530;DHT22;15737;49.760;6.632;2023-11-19T15:28:46;13.30;99.90
28530;DHT22;15737;49.760;6.632;2023-11-19T15:31:11;13.30;99.90
28530;DHT22;15737;49.760;6.632;2023-11-19T15:33:38;13.30;99.90
28530;DHT22;15737;49.760;6.632;2023-11-19T15:36:05;13.30;99.90
28530;DHT22;15737;49.760;6.632;2023-11-19T15:38:36;13.30;99.90
28530;DHT22;15737;49.760;6.632;2023-11-19T15:41:22;13.20;99.90
28530;DHT22;15737;49.760;6.632;2023-11-19T15:43:48;13.20;99.90
28530;DHT22;15737;49.760;6.632;2023-11-19T15:46:13;13.10;99.90
28530;DHT22;15737;49.760;6.632;2023-11-19T15:48:41;13.10;99.90
28530;DHT22;15737;49.760;6.632;2023-11-19T15:51:06;13.00;99.90
28530;DHT22;15737;49.760;6.632;2023-11-19T15:53:32;13.00;99.90
28530;DHT22;15737;49.760;6.632;2023-11-19T15:56:00;12.80;99.90